PWSweather.com
Personal Weather Stations
Station Observations
BALTRELAY
Relay, Baltimore, MD 21227

RelayBaltimore, MD 21227

Lat: 39.24588, Lon: -76.719772

Elevation: 221

Station Type: Davis Vantage Pro2 (6153)

http://www.relayweather.com

Latest ConditionsUpdated 4:20:04 PM GMT Thursday, Oct 23, 2014
Currently Today's Max Today's Min Today's Average
Temperature 59.1°F15.1°C 59.1°F15.1°C 51.0°F10.6°C 53.0°F11.7°C
Dew Point 47.7°F8.7°C 48.0°F8.9°C 44.6°F7.0°C 45.8°F7.7°C
Winds 11.7 mph NW18.8 kmh NW 19.2 mph NW30.9 kmh NW - 9.7 mph 15.6 kmh
Wind Gusts 19.2 mph30.9 kmh 29.3 mph47.2 kmh - -
Humidity 66% 82% 65% 77%
Pressure 29.84 in1010.5 mb 29.92 in1013.2 mb 29.83 in1010.2 mb -
Hour Temp Dew Point Humidity Winds Wind Gusts Pressure Precip Precip Rate Daily Precip Total
04:20 PM 59.1°F15.1°C 47.7°F8.7°C 66% 11.7 mph NW18.8 kmh NW 19.2 mph30.9 kmh 29.84 in1010.5 mb 0.00 in0.0 mm 0.00 in/hr0.0 mm/hr 0.01 in0.3 mm
04:15 PM 59.1°F15.1°C 47.3°F8.5°C 65% 19.2 mph NW30.9 kmh NW 26.3 mph42.3 kmh 29.83 in1010.2 mb 0.00 in0.0 mm 0.00 in/hr0.0 mm/hr 0.01 in0.3 mm
04:10 PM 58.9°F14.9°C 47.5°F8.6°C 66% 12.0 mph N19.3 kmh N 25.2 mph40.6 kmh 29.84 in1010.5 mb 0.00 in0.0 mm 0.00 in/hr0.0 mm/hr 0.01 in0.3 mm
04:00 PM 58.3°F14.6°C 47.4°F8.6°C 67% 13.5 mph NNW21.7 kmh NNW 25.2 mph40.6 kmh 29.84 in1010.5 mb 0.00 in0.0 mm 0.00 in/hr0.0 mm/hr 0.01 in0.3 mm
03:50 PM 58.3°F14.6°C 47.4°F8.6°C 67% 10.8 mph NW17.4 kmh NW 15.1 mph24.3 kmh 29.85 in1010.8 mb 0.00 in0.0 mm 0.00 in/hr0.0 mm/hr 0.01 in0.3 mm
03:45 PM 58.5°F14.7°C 47.2°F8.4°C 66% 13.1 mph NW21.1 kmh NW 20.2 mph32.5 kmh 29.85 in1010.8 mb 0.00 in0.0 mm 0.00 in/hr0.0 mm/hr 0.01 in0.3 mm
03:40 PM 58.5°F14.7°C 47.6°F8.7°C 67% 12.9 mph N20.8 kmh N 18.2 mph29.3 kmh 29.84 in1010.5 mb 0.00 in0.0 mm 0.00 in/hr0.0 mm/hr 0.01 in0.3 mm
03:30 PM 58.4°F14.7°C 47.9°F8.8°C 68% 14.4 mph NW23.2 kmh NW 22.2 mph35.7 kmh 29.85 in1010.8 mb 0.00 in0.0 mm 0.00 in/hr0.0 mm/hr 0.01 in0.3 mm
03:20 PM 58.1°F14.5°C 47.2°F8.4°C 67% 16.9 mph N27.2 kmh N 23.2 mph37.3 kmh 29.85 in1010.8 mb 0.00 in0.0 mm 0.00 in/hr0.0 mm/hr 0.01 in0.3 mm
03:15 PM 58.0°F14.4°C 47.1°F8.4°C 67% 13.9 mph W22.4 kmh W 20.2 mph32.5 kmh 29.85 in1010.8 mb 0.00 in0.0 mm 0.00 in/hr0.0 mm/hr 0.01 in0.3 mm
03:10 PM 58.1°F14.5°C 47.2°F8.4°C 67% 12.7 mph NW20.4 kmh NW 18.2 mph29.3 kmh 29.85 in1010.8 mb 0.00 in0.0 mm 0.00 in/hr0.0 mm/hr 0.01 in0.3 mm
03:00 PM 58.3°F14.6°C 47.8°F8.8°C 68% 8.7 mph N14.0 kmh N 15.1 mph24.3 kmh 29.85 in1010.8 mb 0.00 in0.0 mm 0.00 in/hr0.0 mm/hr 0.01 in0.3 mm
02:50 PM 57.7°F14.3°C 46.8°F8.2°C 67% 10.8 mph NW17.4 kmh NW 29.3 mph47.2 kmh 29.84 in1010.5 mb 0.00 in0.0 mm 0.00 in/hr0.0 mm/hr 0.01 in0.3 mm
02:45 PM 57.8°F14.3°C 47.7°F8.7°C 69% 13.3 mph NNW21.4 kmh NNW 21.2 mph34.1 kmh 29.85 in1010.8 mb 0.00 in0.0 mm 0.00 in/hr0.0 mm/hr 0.01 in0.3 mm
02:40 PM 57.4°F14.1°C 47.3°F8.5°C 69% 14.8 mph N23.8 kmh N 21.2 mph34.1 kmh 29.84 in1010.5 mb 0.00 in0.0 mm 0.00 in/hr0.0 mm/hr 0.01 in0.3 mm
02:30 PM 56.8°F13.8°C 47.1°F8.4°C 70% 12.1 mph N19.5 kmh N 26.3 mph42.3 kmh 29.84 in1010.5 mb 0.00 in0.0 mm 0.00 in/hr0.0 mm/hr 0.01 in0.3 mm
02:20 PM 55.9°F13.3°C 46.7°F8.2°C 71% 12.9 mph N20.8 kmh N 23.2 mph37.3 kmh 29.84 in1010.5 mb 0.00 in0.0 mm 0.00 in/hr0.0 mm/hr 0.01 in0.3 mm
02:15 PM 55.6°F13.1°C 47.1°F8.4°C 73% 10.4 mph NW16.7 kmh NW 17.2 mph27.7 kmh 29.85 in1010.8 mb 0.00 in0.0 mm 0.00 in/hr0.0 mm/hr 0.01 in0.3 mm
02:10 PM 55.4°F13.0°C 46.5°F8.1°C 72% 14.9 mph NNE24.0 kmh NNE 18.2 mph29.3 kmh 29.85 in1010.8 mb 0.00 in0.0 mm 0.00 in/hr0.0 mm/hr 0.01 in0.3 mm
02:00 PM 55.1°F12.8°C 46.6°F8.1°C 73% 6.2 mph NW10.0 kmh NW 18.2 mph29.3 kmh 29.85 in1010.8 mb 0.00 in0.0 mm 0.00 in/hr0.0 mm/hr 0.01 in0.3 mm
01:50 PM 55.0°F12.8°C 46.5°F8.1°C 73% 14.9 mph NW24.0 kmh NW 23.2 mph37.3 kmh 29.85 in1010.8 mb 0.00 in0.0 mm 0.00 in/hr0.0 mm/hr 0.01 in0.3 mm
01:45 PM 55.0°F12.8°C 46.5°F8.1°C 73% 12.4 mph NNW20.0 kmh NNW 16.2 mph26.1 kmh 29.84 in1010.5 mb 0.00 in0.0 mm 0.00 in/hr0.0 mm/hr 0.01 in0.3 mm
01:40 PM 54.8°F12.7°C 46.3°F7.9°C 73% 9.8 mph NW15.8 kmh NW 17.2 mph27.7 kmh 29.84 in1010.5 mb 0.00 in0.0 mm 0.00 in/hr0.0 mm/hr 0.01 in0.3 mm
01:30 PM 54.5°F12.5°C 46.7°F8.2°C 75% 7.2 mph NW11.6 kmh NW 8.1 mph13.0 kmh 29.84 in1010.5 mb 0.00 in0.0 mm 0.00 in/hr0.0 mm/hr 0.01 in0.3 mm
01:20 PM 53.9°F12.2°C 46.1°F7.8°C 75% 16.7 mph N26.9 kmh N 23.2 mph37.3 kmh 29.83 in1010.2 mb 0.00 in0.0 mm 0.00 in/hr0.0 mm/hr 0.01 in0.3 mm
01:15 PM 53.8°F12.1°C 46.0°F7.8°C 75% 13.8 mph NW22.2 kmh NW 18.2 mph29.3 kmh 29.84 in1010.5 mb 0.00 in0.0 mm 0.00 in/hr0.0 mm/hr 0.01 in0.3 mm
01:10 PM 53.7°F12.1°C 45.9°F7.7°C 75% 10.4 mph NW16.7 kmh NW 15.1 mph24.3 kmh 29.84 in1010.5 mb 0.00 in0.0 mm 0.00 in/hr0.0 mm/hr 0.01 in0.3 mm
01:00 PM 53.6°F12.0°C 46.2°F7.9°C 76% 13.2 mph WNW21.2 kmh WNW 18.2 mph29.3 kmh 29.84 in1010.5 mb 0.00 in0.0 mm 0.00 in/hr0.0 mm/hr 0.01 in0.3 mm
12:50 PM 53.3°F11.8°C 45.9°F7.7°C 76% 7.7 mph WNW12.4 kmh WNW 14.1 mph22.7 kmh 29.85 in1010.8 mb 0.00 in0.0 mm 0.00 in/hr0.0 mm/hr 0.01 in0.3 mm
12:45 PM 53.0°F11.7°C 46.0°F7.8°C 77% 8.6 mph NW13.8 kmh NW 17.2 mph27.7 kmh 29.84 in1010.5 mb 0.00 in0.0 mm 0.00 in/hr0.0 mm/hr 0.01 in0.3 mm
12:40 PM 52.8°F11.6°C 45.8°F7.7°C 77% 11.5 mph NW18.5 kmh NW 16.2 mph26.1 kmh 29.85 in1010.8 mb 0.00 in0.0 mm 0.00 in/hr0.0 mm/hr 0.01 in0.3 mm
12:30 PM 52.8°F11.6°C 45.8°F7.7°C 77% 11.8 mph N19.0 kmh N 21.2 mph34.1 kmh 29.85 in1010.8 mb 0.00 in0.0 mm 0.00 in/hr0.0 mm/hr 0.01 in0.3 mm
12:20 PM 52.3°F11.3°C 45.6°F7.6°C 78% 11.4 mph WNW18.3 kmh WNW 17.2 mph27.7 kmh 29.84 in1010.5 mb 0.00 in0.0 mm 0.00 in/hr0.0 mm/hr 0.01 in0.3 mm
12:15 PM 52.1°F11.2°C 45.5°F7.5°C 78% 9.8 mph N15.8 kmh N 14.1 mph22.7 kmh 29.84 in1010.5 mb 0.00 in0.0 mm 0.00 in/hr0.0 mm/hr 0.01 in0.3 mm
12:10 PM 52.1°F11.2°C 45.1°F7.3°C 77% 4.9 mph N7.9 kmh N 14.1 mph22.7 kmh 29.84 in1010.5 mb 0.00 in0.0 mm 0.00 in/hr0.0 mm/hr 0.01 in0.3 mm
12:00 PM 52.1°F11.2°C 45.1°F7.3°C 77% 6.8 mph NW10.9 kmh NW 10.1 mph16.3 kmh 29.84 in1010.5 mb 0.00 in0.0 mm 0.00 in/hr0.0 mm/hr 0.01 in0.3 mm
11:50 AM 52.1°F11.2°C 45.4°F7.4°C 78% 8.6 mph NNW13.8 kmh NNW 11.1 mph17.9 kmh 29.84 in1010.5 mb 0.00 in0.0 mm 0.00 in/hr0.0 mm/hr 0.01 in0.3 mm
11:45 AM 52.0°F11.1°C 45.4°F7.4°C 78% 8.9 mph WNW14.3 kmh WNW 21.2 mph34.1 kmh 29.84 in1010.5 mb 0.00 in0.0 mm 0.00 in/hr0.0 mm/hr 0.01 in0.3 mm
11:40 AM 52.0°F11.1°C 45.0°F7.2°C 77% 9.0 mph NW14.5 kmh NW 13.1 mph21.1 kmh 29.84 in1010.5 mb 0.00 in0.0 mm 0.00 in/hr0.0 mm/hr 0.01 in0.3 mm
11:30 AM 52.0°F11.1°C 45.3°F7.4°C 78% 9.3 mph WNW15.0 kmh WNW 13.1 mph21.1 kmh 29.84 in1010.5 mb 0.00 in0.0 mm 0.00 in/hr0.0 mm/hr 0.01 in0.3 mm
11:20 AM 52.1°F11.2°C 45.1°F7.3°C 77% 7.9 mph WNW12.7 kmh WNW 14.1 mph22.7 kmh 29.84 in1010.5 mb 0.00 in0.0 mm 0.00 in/hr0.0 mm/hr 0.01 in0.3 mm
11:15 AM 52.1°F11.2°C 45.4°F7.4°C 78% 8.2 mph N13.2 kmh N 18.2 mph29.3 kmh 29.84 in1010.5 mb 0.00 in0.0 mm 0.00 in/hr0.0 mm/hr 0.01 in0.3 mm
11:10 AM 52.2°F11.2°C 45.2°F7.3°C 77% 9.2 mph WNW14.8 kmh WNW 12.1 mph19.5 kmh 29.84 in1010.5 mb 0.00 in0.0 mm 0.00 in/hr0.0 mm/hr 0.01 in0.3 mm
11:00 AM 52.2°F11.2°C 45.5°F7.5°C 78% 9.6 mph NW15.4 kmh NW 16.2 mph26.1 kmh 29.84 in1010.5 mb 0.00 in0.0 mm 0.00 in/hr0.0 mm/hr 0.01 in0.3 mm
10:50 AM 52.0°F11.1°C 45.4°F7.4°C 78% 8.8 mph NW14.2 kmh NW 14.1 mph22.7 kmh 29.84 in1010.5 mb 0.00 in0.0 mm 0.00 in/hr0.0 mm/hr 0.01 in0.3 mm
10:45 AM 52.0°F11.1°C 45.3°F7.4°C 78% 10.9 mph NW17.5 kmh NW 15.1 mph24.3 kmh 29.84 in1010.5 mb 0.00 in0.0 mm 0.00 in/hr0.0 mm/hr 0.01 in0.3 mm
10:40 AM 51.9°F11.1°C 45.2°F7.3°C 78% 7.9 mph WNW12.7 kmh WNW 13.1 mph21.1 kmh 29.85 in1010.8 mb 0.00 in0.0 mm 0.00 in/hr0.0 mm/hr 0.01 in0.3 mm
10:30 AM 51.8°F11.0°C 45.5°F7.5°C 79% 10.9 mph NW17.5 kmh NW 19.2 mph30.9 kmh 29.84 in1010.5 mb 0.00 in0.0 mm 0.00 in/hr0.0 mm/hr 0.01 in0.3 mm
10:20 AM 51.7°F10.9°C 45.4°F7.4°C 79% 7.8 mph NW12.6 kmh NW 14.1 mph22.7 kmh 29.85 in1010.8 mb 0.00 in0.0 mm 0.00 in/hr0.0 mm/hr 0.01 in0.3 mm
10:15 AM 51.7°F10.9°C 45.4°F7.4°C 79% 6.6 mph NW10.6 kmh NW 10.1 mph16.3 kmh 29.85 in1010.8 mb 0.00 in0.0 mm 0.00 in/hr0.0 mm/hr 0.01 in0.3 mm
10:10 AM 51.6°F10.9°C 45.3°F7.4°C 79% 10.3 mph NW16.6 kmh NW 20.2 mph32.5 kmh 29.85 in1010.8 mb 0.00 in0.0 mm 0.00 in/hr0.0 mm/hr 0.01 in0.3 mm
10:00 AM 51.4°F10.8°C 45.5°F7.5°C 80% 7.7 mph NW12.4 kmh NW 10.1 mph16.3 kmh 29.85 in1010.8 mb 0.00 in0.0 mm 0.00 in/hr0.0 mm/hr 0.01 in0.3 mm
09:50 AM 51.2°F10.7°C 45.2°F7.3°C 80% 11.5 mph N18.5 kmh N 15.1 mph24.3 kmh 29.84 in1010.5 mb 0.00 in0.0 mm 0.00 in/hr0.0 mm/hr 0.01 in0.3 mm
09:45 AM 51.1°F10.6°C 45.1°F7.3°C 80% 9.9 mph NW15.9 kmh NW 13.1 mph21.1 kmh 29.84 in1010.5 mb 0.00 in0.0 mm 0.00 in/hr0.0 mm/hr 0.01 in0.3 mm
09:40 AM 51.1°F10.6°C 45.2°F7.3°C 80% 9.0 mph WNW14.5 kmh WNW 17.2 mph27.7 kmh 29.84 in1010.5 mb 0.00 in0.0 mm 0.00 in/hr0.0 mm/hr 0.01 in0.3 mm
09:30 AM 51.2°F10.7°C 45.2°F7.3°C 80% 8.9 mph NNW14.3 kmh NNW 12.1 mph19.5 kmh 29.84 in1010.5 mb 0.00 in0.0 mm 0.00 in/hr0.0 mm/hr 0.01 in0.3 mm
09:20 AM 51.1°F10.6°C 45.1°F7.3°C 80% 9.6 mph NW15.4 kmh NW 9.1 mph14.6 kmh 29.84 in1010.5 mb 0.00 in0.0 mm 0.00 in/hr0.0 mm/hr 0.01 in0.3 mm
09:15 AM 51.1°F10.6°C 45.1°F7.3°C 80% 4.5 mph WNW7.2 kmh WNW 9.1 mph14.6 kmh 29.84 in1010.5 mb 0.00 in0.0 mm 0.00 in/hr0.0 mm/hr 0.01 in0.3 mm
09:10 AM 51.0°F10.6°C 44.7°F7.1°C 79% 9.5 mph NNW15.3 kmh NNW 13.1 mph21.1 kmh 29.84 in1010.5 mb 0.00 in0.0 mm 0.00 in/hr0.0 mm/hr 0.01 in0.3 mm
09:00 AM 51.2°F10.7°C 44.9°F7.2°C 79% 8.3 mph NW13.4 kmh NW 9.1 mph14.6 kmh 29.83 in1010.2 mb 0.00 in0.0 mm 0.00 in/hr0.0 mm/hr 0.01 in0.3 mm
08:50 AM 51.2°F10.7°C 44.9°F7.2°C 79% 7.8 mph W12.6 kmh W 11.1 mph17.9 kmh 29.84 in1010.5 mb 0.00 in0.0 mm 0.00 in/hr0.0 mm/hr 0.01 in0.3 mm
08:45 AM 51.2°F10.7°C 44.9°F7.2°C 79% 6.7 mph W10.8 kmh W 10.1 mph16.3 kmh 29.84 in1010.5 mb 0.00 in0.0 mm 0.00 in/hr0.0 mm/hr 0.01 in0.3 mm
08:40 AM 51.2°F10.7°C 44.9°F7.2°C 79% 6.8 mph WNW10.9 kmh WNW 12.1 mph19.5 kmh 29.84 in1010.5 mb 0.00 in0.0 mm 0.00 in/hr0.0 mm/hr 0.01 in0.3 mm
08:30 AM 51.3°F10.7°C 45.0°F7.2°C 79% 8.8 mph W14.2 kmh W 14.1 mph22.7 kmh 29.84 in1010.5 mb 0.00 in0.0 mm 0.00 in/hr0.0 mm/hr 0.01 in0.3 mm
08:20 AM 51.3°F10.7°C 45.0°F7.2°C 79% 10.1 mph WNW16.3 kmh WNW 18.2 mph29.3 kmh 29.83 in1010.2 mb 0.00 in0.0 mm 0.00 in/hr0.0 mm/hr 0.01 in0.3 mm
08:15 AM 51.3°F10.7°C 44.6°F7.0°C 78% 11.2 mph NW18.0 kmh NW 16.2 mph26.1 kmh 29.84 in1010.5 mb 0.00 in0.0 mm 0.00 in/hr0.0 mm/hr 0.01 in0.3 mm
08:10 AM 51.3°F10.7°C 45.0°F7.2°C 79% 11.5 mph NW18.5 kmh NW 19.2 mph30.9 kmh 29.83 in1010.2 mb 0.00 in0.0 mm 0.00 in/hr0.0 mm/hr 0.01 in0.3 mm
08:00 AM 51.2°F10.7°C 44.9°F7.2°C 79% 8.1 mph N13.0 kmh N 9.1 mph14.6 kmh 29.84 in1010.5 mb 0.00 in0.0 mm 0.00 in/hr0.0 mm/hr 0.01 in0.3 mm
07:50 AM 51.2°F10.7°C 44.6°F7.0°C 78% 10.0 mph N16.1 kmh N 13.1 mph21.1 kmh 29.83 in1010.2 mb 0.00 in0.0 mm 0.00 in/hr0.0 mm/hr 0.01 in0.3 mm
07:45 AM 51.2°F10.7°C 44.6°F7.0°C 78% 8.6 mph W13.8 kmh W 11.1 mph17.9 kmh 29.83 in1010.2 mb 0.00 in0.0 mm 0.00 in/hr0.0 mm/hr 0.01 in0.3 mm
07:40 AM 51.2°F10.7°C 44.6°F7.0°C 78% 6.4 mph WNW10.3 kmh WNW 9.1 mph14.6 kmh 29.83 in1010.2 mb 0.00 in0.0 mm 0.00 in/hr0.0 mm/hr 0.01 in0.3 mm
07:30 AM 51.3°F10.7°C 44.7°F7.1°C 78% 4.2 mph NW6.8 kmh NW 14.1 mph22.7 kmh 29.84 in1010.5 mb 0.00 in0.0 mm 0.00 in/hr0.0 mm/hr 0.01 in0.3 mm
07:20 AM 51.3°F10.7°C 44.7°F7.1°C 78% 8.2 mph W13.2 kmh W 12.1 mph19.5 kmh 29.84 in1010.5 mb 0.00 in0.0 mm 0.00 in/hr0.0 mm/hr 0.01 in0.3 mm
07:15 AM 51.3°F10.7°C 44.7°F7.1°C 78% 5.8 mph NNW9.3 kmh NNW 14.1 mph22.7 kmh 29.84 in1010.5 mb 0.00 in0.0 mm 0.00 in/hr0.0 mm/hr 0.01 in0.3 mm
07:10 AM 51.3°F10.7°C 44.7°F7.1°C 78% 13.8 mph NW22.2 kmh NW 18.2 mph29.3 kmh 29.84 in1010.5 mb 0.00 in0.0 mm 0.00 in/hr0.0 mm/hr 0.01 in0.3 mm
07:00 AM 51.3°F10.7°C 44.7°F7.1°C 78% 5.2 mph NW8.4 kmh NW 10.1 mph16.3 kmh 29.84 in1010.5 mb 0.00 in0.0 mm 0.00 in/hr0.0 mm/hr 0.01 in0.3 mm
06:50 AM 51.3°F10.7°C 44.7°F7.1°C 78% 3.9 mph W6.3 kmh W 12.1 mph19.5 kmh 29.84 in1010.5 mb 0.00 in0.0 mm 0.00 in/hr0.0 mm/hr 0.01 in0.3 mm
06:45 AM 51.3°F10.7°C 44.7°F7.1°C 78% 8.2 mph WNW13.2 kmh WNW 14.1 mph22.7 kmh 29.84 in1010.5 mb 0.00 in0.0 mm 0.00 in/hr0.0 mm/hr 0.01 in0.3 mm
06:40 AM 51.3°F10.7°C 45.0°F7.2°C 79% 5.2 mph N8.4 kmh N 14.1 mph22.7 kmh 29.84 in1010.5 mb 0.00 in0.0 mm 0.00 in/hr0.0 mm/hr 0.01 in0.3 mm
06:30 AM 51.3°F10.7°C 44.7°F7.1°C 78% 5.4 mph NW8.7 kmh NW 10.1 mph16.3 kmh 29.85 in1010.8 mb 0.00 in0.0 mm 0.00 in/hr0.0 mm/hr 0.01 in0.3 mm
06:20 AM 51.3°F10.7°C 44.7°F7.1°C 78% 7.5 mph NNW12.1 kmh NNW 8.1 mph13.0 kmh 29.85 in1010.8 mb 0.00 in0.0 mm 0.00 in/hr0.0 mm/hr 0.01 in0.3 mm
06:15 AM 51.3°F10.7°C 45.0°F7.2°C 79% 8.1 mph NW13.0 kmh NW 11.1 mph17.9 kmh 29.85 in1010.8 mb 0.00 in0.0 mm 0.00 in/hr0.0 mm/hr 0.01 in0.3 mm
06:10 AM 51.2°F10.7°C 44.9°F7.2°C 79% 6.8 mph WNW10.9 kmh WNW 13.1 mph21.1 kmh 29.85 in1010.8 mb 0.00 in0.0 mm 0.00 in/hr0.0 mm/hr 0.01 in0.3 mm
06:00 AM 51.3°F10.7°C 45.0°F7.2°C 79% 9.2 mph N14.8 kmh N 14.1 mph22.7 kmh 29.86 in1011.2 mb 0.00 in0.0 mm 0.00 in/hr0.0 mm/hr 0.01 in0.3 mm
05:50 AM 51.3°F10.7°C 45.0°F7.2°C 79% 8.0 mph N12.9 kmh N 11.1 mph17.9 kmh 29.85 in1010.8 mb 0.00 in0.0 mm 0.00 in/hr0.0 mm/hr 0.01 in0.3 mm
05:45 AM 51.3°F10.7°C 45.1°F7.3°C 79% 6.0 mph NW9.7 kmh NW 11.1 mph17.9 kmh 29.86 in1011.2 mb 0.00 in0.0 mm 0.00 in/hr0.0 mm/hr 0.01 in0.3 mm
05:40 AM 51.4°F10.8°C 44.7°F7.1°C 78% 6.0 mph NW9.7 kmh NW 12.1 mph19.5 kmh 29.86 in1011.2 mb 0.00 in0.0 mm 0.00 in/hr0.0 mm/hr 0.01 in0.3 mm
05:30 AM 51.4°F10.8°C 45.1°F7.3°C 79% 8.4 mph WNW13.5 kmh WNW 13.1 mph21.1 kmh 29.86 in1011.2 mb 0.00 in0.0 mm 0.00 in/hr0.0 mm/hr 0.01 in0.3 mm
05:20 AM 51.5°F10.8°C 44.8°F7.1°C 78% 12.1 mph WNW19.5 kmh WNW 19.2 mph30.9 kmh 29.86 in1011.2 mb 0.00 in0.0 mm 0.00 in/hr0.0 mm/hr 0.01 in0.3 mm
05:15 AM 51.5°F10.8°C 44.8°F7.1°C 78% 6.1 mph WNW9.8 kmh WNW 10.1 mph16.3 kmh 29.86 in1011.2 mb 0.00 in0.0 mm 0.00 in/hr0.0 mm/hr 0.01 in0.3 mm
05:10 AM 51.5°F10.8°C 44.9°F7.2°C 78% 11.3 mph WSW18.2 kmh WSW 17.2 mph27.7 kmh 29.86 in1011.2 mb 0.00 in0.0 mm 0.00 in/hr0.0 mm/hr 0.01 in0.3 mm
05:00 AM 51.6°F10.9°C 45.3°F7.4°C 79% 7.9 mph NW12.7 kmh NW 13.1 mph21.1 kmh 29.87 in1011.5 mb 0.00 in0.0 mm 0.00 in/hr0.0 mm/hr 0.01 in0.3 mm
04:50 AM 51.7°F10.9°C 45.4°F7.4°C 79% 7.2 mph NW11.6 kmh NW 11.1 mph17.9 kmh 29.87 in1011.5 mb 0.00 in0.0 mm 0.00 in/hr0.0 mm/hr 0.01 in0.3 mm
04:45 AM 51.7°F10.9°C 45.4°F7.4°C 79% 10.1 mph WNW16.3 kmh WNW 11.1 mph17.9 kmh 29.87 in1011.5 mb 0.00 in0.0 mm 0.00 in/hr0.0 mm/hr 0.01 in0.3 mm
04:40 AM 51.8°F11.0°C 45.1°F7.3°C 78% 3.8 mph W6.1 kmh W 5.0 mph8.0 kmh 29.87 in1011.5 mb 0.00 in0.0 mm 0.00 in/hr0.0 mm/hr 0.01 in0.3 mm
04:30 AM 51.9°F11.1°C 45.2°F7.3°C 78% 7.7 mph WSW12.4 kmh WSW 7.1 mph11.4 kmh 29.87 in1011.5 mb 0.00 in0.0 mm 0.00 in/hr0.0 mm/hr 0.01 in0.3 mm
04:20 AM 51.9°F11.1°C 45.2°F7.3°C 78% 7.9 mph NW12.7 kmh NW 10.1 mph16.3 kmh 29.87 in1011.5 mb 0.00 in0.0 mm 0.00 in/hr0.0 mm/hr 0.01 in0.3 mm
04:15 AM 51.9°F11.1°C 45.2°F7.3°C 78% 9.6 mph NW15.4 kmh NW 15.1 mph24.3 kmh 29.88 in1011.9 mb 0.00 in0.0 mm 0.00 in/hr0.0 mm/hr 0.01 in0.3 mm
04:10 AM 51.9°F11.1°C 45.2°F7.3°C 78% 7.5 mph WSW12.1 kmh WSW 10.1 mph16.3 kmh 29.87 in1011.5 mb 0.00 in0.0 mm 0.00 in/hr0.0 mm/hr 0.01 in0.3 mm
04:00 AM 52.1°F11.2°C 45.4°F7.4°C 78% 7.1 mph NW11.4 kmh NW 10.1 mph16.3 kmh 29.88 in1011.9 mb 0.00 in0.0 mm 0.00 in/hr0.0 mm/hr 0.01 in0.3 mm
03:50 AM 52.3°F11.3°C 45.6°F7.6°C 78% 10.3 mph WNW16.6 kmh WNW 19.2 mph30.9 kmh 29.88 in1011.9 mb 0.00 in0.0 mm 0.00 in/hr0.0 mm/hr 0.66 in16.8 mm
03:45 AM 52.3°F11.3°C 45.3°F7.4°C 77% 6.8 mph NW10.9 kmh NW 10.1 mph16.3 kmh 29.89 in1012.2 mb 0.00 in0.0 mm 0.00 in/hr0.0 mm/hr 0.66 in16.8 mm
03:40 AM 52.4°F11.3°C 45.4°F7.4°C 77% 5.9 mph NW9.5 kmh NW 9.1 mph14.6 kmh 29.89 in1012.2 mb 0.00 in0.0 mm 0.00 in/hr0.0 mm/hr 0.66 in16.8 mm
03:30 AM 52.5°F11.4°C 45.5°F7.5°C 77% 11.8 mph NW19.0 kmh NW 16.2 mph26.1 kmh 29.89 in1012.2 mb 0.00 in0.0 mm 0.00 in/hr0.0 mm/hr 0.66 in16.8 mm
03:20 AM 52.4°F11.3°C 45.7°F7.6°C 78% 8.0 mph NW12.9 kmh NW 17.2 mph27.7 kmh 29.89 in1012.2 mb 0.00 in0.0 mm 0.00 in/hr0.0 mm/hr 0.66 in16.8 mm
03:15 AM 52.5°F11.4°C 45.8°F7.7°C 78% 6.1 mph NW9.8 kmh NW 10.1 mph16.3 kmh 29.90 in1012.5 mb 0.00 in0.0 mm 0.00 in/hr0.0 mm/hr 0.66 in16.8 mm
03:10 AM 52.5°F11.4°C 45.8°F7.7°C 78% 11.3 mph NW18.2 kmh NW 18.2 mph29.3 kmh 29.90 in1012.5 mb 0.00 in0.0 mm 0.00 in/hr0.0 mm/hr 0.66 in16.8 mm
03:00 AM 52.5°F11.4°C 45.9°F7.7°C 78% 11.3 mph NW18.2 kmh NW 16.2 mph26.1 kmh 29.90 in1012.5 mb 0.00 in0.0 mm 0.00 in/hr0.0 mm/hr 0.66 in16.8 mm
02:50 AM 52.6°F11.4°C 45.9°F7.7°C 78% 9.9 mph N15.9 kmh N 20.2 mph32.5 kmh 29.90 in1012.5 mb 0.00 in0.0 mm 0.00 in/hr0.0 mm/hr 0.66 in16.8 mm
02:45 AM 52.6°F11.4°C 45.9°F7.7°C 78% 8.4 mph NNW13.5 kmh NNW 14.1 mph22.7 kmh 29.90 in1012.5 mb 0.00 in0.0 mm 0.00 in/hr0.0 mm/hr 0.66 in16.8 mm
02:40 AM 52.6°F11.4°C 46.3°F7.9°C 79% 10.5 mph NW16.9 kmh NW 20.2 mph32.5 kmh 29.90 in1012.5 mb 0.00 in0.0 mm 0.00 in/hr0.0 mm/hr 0.66 in16.8 mm
02:30 AM 52.7°F11.5°C 46.0°F7.8°C 78% 14.0 mph WNW22.5 kmh WNW 16.2 mph26.1 kmh 29.90 in1012.5 mb 0.00 in0.0 mm 0.00 in/hr0.0 mm/hr 0.66 in16.8 mm
02:20 AM 52.8°F11.6°C 46.1°F7.8°C 78% 10.3 mph NW16.6 kmh NW 12.1 mph19.5 kmh 29.90 in1012.5 mb 0.00 in0.0 mm 0.00 in/hr0.0 mm/hr 0.66 in16.8 mm
02:15 AM 52.8°F11.6°C 46.1°F7.8°C 78% 12.9 mph NW20.8 kmh NW 18.2 mph29.3 kmh 29.91 in1012.9 mb 0.00 in0.0 mm 0.00 in/hr0.0 mm/hr 0.66 in16.8 mm
02:10 AM 52.8°F11.6°C 46.1°F7.8°C 78% 9.8 mph WNW15.8 kmh WNW 12.1 mph19.5 kmh 29.91 in1012.9 mb 0.00 in0.0 mm 0.00 in/hr0.0 mm/hr 0.66 in16.8 mm
02:00 AM 52.9°F11.6°C 46.2°F7.9°C 78% 8.1 mph NW13.0 kmh NW 13.1 mph21.1 kmh 29.91 in1012.9 mb 0.01 in0.3 mm 0.01 in/hr0.3 mm/hr 0.66 in16.8 mm
01:50 AM 53.0°F11.7°C 46.3°F7.9°C 78% 8.6 mph NW13.8 kmh NW 17.2 mph27.7 kmh 29.91 in1012.9 mb 0.00 in0.0 mm 0.00 in/hr0.0 mm/hr 0.65 in16.5 mm
01:45 AM 53.1°F11.7°C 46.4°F8.0°C 78% 12.2 mph NW19.6 kmh NW 21.2 mph34.1 kmh 29.91 in1012.9 mb 0.00 in0.0 mm 0.00 in/hr0.0 mm/hr 0.65 in16.5 mm
01:40 AM 53.1°F11.7°C 46.4°F8.0°C 78% 9.9 mph NW15.9 kmh NW 15.1 mph24.3 kmh 29.91 in1012.9 mb 0.00 in0.0 mm 0.00 in/hr0.0 mm/hr 0.65 in16.5 mm
01:30 AM 53.2°F11.8°C 46.8°F8.2°C 79% 11.3 mph N18.2 kmh N 17.2 mph27.7 kmh 29.91 in1012.9 mb 0.00 in0.0 mm 0.00 in/hr0.0 mm/hr 0.65 in16.5 mm
01:20 AM 53.4°F11.9°C 47.0°F8.3°C 79% 7.2 mph NNW11.6 kmh NNW 11.1 mph17.9 kmh 29.91 in1012.9 mb 0.00 in0.0 mm 0.00 in/hr0.0 mm/hr 0.65 in16.5 mm
01:15 AM 53.5°F11.9°C 47.1°F8.4°C 79% 8.0 mph NNW12.9 kmh NNW 13.1 mph21.1 kmh 29.91 in1012.9 mb 0.00 in0.0 mm 0.00 in/hr0.0 mm/hr 0.65 in16.5 mm
01:10 AM 53.5°F11.9°C 46.8°F8.2°C 78% 10.1 mph NW16.3 kmh NW 24.2 mph38.9 kmh 29.91 in1012.9 mb 0.00 in0.0 mm 0.00 in/hr0.0 mm/hr 0.65 in16.5 mm
01:00 AM 53.6°F12.0°C 46.9°F8.3°C 78% 11.4 mph N18.3 kmh N 14.1 mph22.7 kmh 29.92 in1013.2 mb 0.00 in0.0 mm 0.00 in/hr0.0 mm/hr 0.65 in16.5 mm
12:50 AM 53.6°F12.0°C 47.0°F8.3°C 78% 13.8 mph NW22.2 kmh NW 20.2 mph32.5 kmh 29.91 in1012.9 mb 0.00 in0.0 mm 0.00 in/hr0.0 mm/hr 0.65 in16.5 mm
12:45 AM 53.7°F12.1°C 47.0°F8.3°C 78% 12.8 mph NNW20.6 kmh NNW 18.2 mph29.3 kmh 29.92 in1013.2 mb 0.00 in0.0 mm 0.00 in/hr0.0 mm/hr 0.65 in16.5 mm
12:40 AM 53.6°F12.0°C 47.3°F8.5°C 79% 13.1 mph NW21.1 kmh NW 18.2 mph29.3 kmh 29.92 in1013.2 mb 0.00 in0.0 mm 0.00 in/hr0.0 mm/hr 0.65 in16.5 mm
12:30 AM 53.6°F12.0°C 47.6°F8.7°C 80% 9.1 mph NW14.6 kmh NW 15.1 mph24.3 kmh 29.92 in1013.2 mb 0.00 in0.0 mm 0.00 in/hr0.0 mm/hr 0.65 in16.5 mm
12:20 AM 53.5°F11.9°C 47.5°F8.6°C 80% 8.9 mph N14.3 kmh N 12.1 mph19.5 kmh 29.91 in1012.9 mb 0.00 in0.0 mm 0.00 in/hr0.0 mm/hr 0.65 in16.5 mm
12:15 AM 53.5°F11.9°C 47.5°F8.6°C 80% 6.5 mph NW10.5 kmh NW 12.1 mph19.5 kmh 29.91 in1012.9 mb 0.00 in0.0 mm 0.00 in/hr0.0 mm/hr 0.65 in16.5 mm
12:10 AM 53.5°F11.9°C 47.5°F8.6°C 80% 13.7 mph NW22.0 kmh NW 19.2 mph30.9 kmh 29.91 in1012.9 mb 0.00 in0.0 mm 0.00 in/hr0.0 mm/hr 0.65 in16.5 mm
12:00 AM 53.4°F11.9°C 48.0°F8.9°C 82% 11.9 mph N19.2 kmh N 16.2 mph26.1 kmh 29.90 in1012.5 mb 0.00 in0.0 mm 0.00 in/hr0.0 mm/hr 0.65 in16.5 mm